sensor_id;sensor_type;location;lat;lon;timestamp;P1;durP1;ratioP1;P2;durP2;ratioP2
19623;SDS011;9959;49.798;9.928;2023-04-25T00:00:18;8.77;;;5.20;;
19623;SDS011;9959;49.798;9.928;2023-04-25T00:02:45;8.35;;;5.60;;
19623;SDS011;9959;49.798;9.928;2023-04-25T00:05:13;9.65;;;5.40;;
19623;SDS011;9959;49.798;9.928;2023-04-25T00:07:41;9.05;;;5.93;;
19623;SDS011;9959;49.798;9.928;2023-04-25T00:10:09;10.68;;;5.85;;
19623;SDS011;9959;49.798;9.928;2023-04-25T00:12:37;8.40;;;5.25;;
19623;SDS011;9959;49.798;9.928;2023-04-25T00:15:05;10.73;;;5.80;;
19623;SDS011;9959;49.798;9.928;2023-04-25T00:17:32;7.22;;;4.97;;
19623;SDS011;9959;49.798;9.928;2023-04-25T00:20:01;7.70;;;5.35;;
19623;SDS011;9959;49.798;9.928;2023-04-25T00:22:31;8.43;;;5.30;;
19623;SDS011;9959;49.798;9.928;2023-04-25T00:25:00;9.20;;;4.93;;
19623;SDS011;9959;49.798;9.928;2023-04-25T00:27:26;7.50;;;4.97;;
19623;SDS011;9959;49.798;9.928;2023-04-25T00:29:53;6.43;;;4.70;;
19623;SDS011;9959;49.798;9.928;2023-04-25T00:32:20;7.88;;;4.63;;
19623;SDS011;9959;49.798;9.928;2023-04-25T00:34:47;9.55;;;5.20;;
19623;SDS011;9959;49.798;9.928;2023-04-25T00:37:14;8.45;;;5.07;;
19623;SDS011;9959;49.798;9.928;2023-04-25T00:39:40;7.75;;;5.50;;
19623;SDS011;9959;49.798;9.928;2023-04-25T00:42:07;7.78;;;5.40;;
19623;SDS011;9959;49.798;9.928;2023-04-25T00:44:34;9.93;;;4.95;;
19623;SDS011;9959;49.798;9.928;2023-04-25T00:47:02;8.20;;;5.35;;
19623;SDS011;9959;49.798;9.928;2023-04-25T00:49:30;8.25;;;5.43;;
19623;SDS011;9959;49.798;9.928;2023-04-25T00:51:56;9.75;;;6.05;;
19623;SDS011;9959;49.798;9.928;2023-04-25T00:54:23;9.15;;;5.43;;
19623;SDS011;9959;49.798;9.928;2023-04-25T00:56:51;10.20;;;5.90;;
19623;SDS011;9959;49.798;9.928;2023-04-25T00:59:19;8.23;;;5.53;;
19623;SDS011;9959;49.798;9.928;2023-04-25T01:01:47;10.45;;;6.05;;
19623;SDS011;9959;49.798;9.928;2023-04-25T01:04:14;9.57;;;5.78;;
19623;SDS011;9959;49.798;9.928;2023-04-25T01:06:41;8.50;;;5.65;;
19623;SDS011;9959;49.798;9.928;2023-04-25T01:09:08;9.13;;;5.13;;
19623;SDS011;9959;49.798;9.928;2023-04-25T01:11:35;10.13;;;5.32;;
19623;SDS011;9959;49.798;9.928;2023-04-25T01:14:02;8.27;;;5.03;;
19623;SDS011;9959;49.798;9.928;2023-04-25T01:16:29;9.30;;;5.82;;
19623;SDS011;9959;49.798;9.928;2023-04-25T01:18:56;9.90;;;5.43;;
19623;SDS011;9959;49.798;9.928;2023-04-25T01:21:23;9.25;;;5.57;;
19623;SDS011;9959;49.798;9.928;2023-04-25T01:23:53;7.05;;;4.70;;
19623;SDS011;9959;49.798;9.928;2023-04-25T01:26:21;8.43;;;4.72;;
19623;SDS011;9959;49.798;9.928;2023-04-25T01:28:49;7.25;;;4.13;;
19623;SDS011;9959;49.798;9.928;2023-04-25T01:31:16;7.40;;;4.82;;
19623;SDS011;9959;49.798;9.928;2023-04-25T01:33:44;6.85;;;4.65;;
19623;SDS011;9959;49.798;9.928;2023-04-25T01:36:12;7.65;;;4.70;;
19623;SDS011;9959;49.798;9.928;2023-04-25T01:38:39;5.80;;;4.18;;
19623;SDS011;9959;49.798;9.928;2023-04-25T01:41:06;7.10;;;4.43;;
19623;SDS011;9959;49.798;9.928;2023-04-25T01:43:33;8.15;;;4.43;;
19623;SDS011;9959;49.798;9.928;2023-04-25T01:46:00;7.82;;;4.63;;
19623;SDS011;9959;49.798;9.928;2023-04-25T01:48:27;5.65;;;4.32;;
19623;SDS011;9959;49.798;9.928;2023-04-25T01:50:54;6.53;;;4.75;;
19623;SDS011;9959;49.798;9.928;2023-04-25T01:53:21;6.63;;;3.95;;
19623;SDS011;9959;49.798;9.928;2023-04-25T01:55:49;4.95;;;3.80;;
19623;SDS011;9959;49.798;9.928;2023-04-25T01:58:15;7.93;;;4.18;;
19623;SDS011;9959;49.798;9.928;2023-04-25T02:00:42;8.20;;;4.80;;
19623;SDS011;9959;49.798;9.928;2023-04-25T02:03:09;7.45;;;4.53;;
19623;SDS011;9959;49.798;9.928;2023-04-25T02:05:37;6.13;;;4.38;;
19623;SDS011;9959;49.798;9.928;2023-04-25T02:08:05;6.47;;;4.30;;
19623;SDS011;9959;49.798;9.928;2023-04-25T02:10:33;5.00;;;3.38;;
19623;SDS011;9959;49.798;9.928;2023-04-25T02:13:00;5.72;;;4.00;;
19623;SDS011;9959;49.798;9.928;2023-04-25T02:15:27;5.53;;;4.05;;
19623;SDS011;9959;49.798;9.928;2023-04-25T02:17:54;6.55;;;3.88;;
19623;SDS011;9959;49.798;9.928;2023-04-25T02:20:22;8.50;;;3.97;;
19623;SDS011;9959;49.798;9.928;2023-04-25T02:22:49;10.65;;;4.05;;
19623;SDS011;9959;49.798;9.928;2023-04-25T02:25:17;6.63;;;3.47;;
19623;SDS011;9959;49.798;9.928;2023-04-25T02:27:46;6.65;;;3.45;;
19623;SDS011;9959;49.798;9.928;2023-04-25T02:30:14;11.38;;;3.70;;
19623;SDS011;9959;49.798;9.928;2023-04-25T02:32:41;5.70;;;3.30;;
19623;SDS011;9959;49.798;9.928;2023-04-25T02:35:08;5.82;;;3.65;;
19623;SDS011;9959;49.798;9.928;2023-04-25T02:37:38;3.72;;;2.88;;
19623;SDS011;9959;49.798;9.928;2023-04-25T02:40:05;5.65;;;3.13;;
19623;SDS011;9959;49.798;9.928;2023-04-25T02:42:33;3.90;;;2.95;;
19623;SDS011;9959;49.798;9.928;2023-04-25T02:45:00;4.32;;;3.00;;
19623;SDS011;9959;49.798;9.928;2023-04-25T02:47:28;4.35;;;3.15;;
19623;SDS011;9959;49.798;9.928;2023-04-25T02:49:55;3.92;;;2.95;;
19623;SDS011;9959;49.798;9.928;2023-04-25T02:52:22;4.97;;;3.20;;
19623;SDS011;9959;49.798;9.928;2023-04-25T02:54:49;4.35;;;3.08;;
19623;SDS011;9959;49.798;9.928;2023-04-25T02:57:16;6.10;;;3.22;;
19623;SDS011;9959;49.798;9.928;2023-04-25T02:59:43;4.25;;;2.95;;
19623;SDS011;9959;49.798;9.928;2023-04-25T03:02:09;4.90;;;3.03;;
19623;SDS011;9959;49.798;9.928;2023-04-25T03:04:36;3.83;;;2.92;;
19623;SDS011;9959;49.798;9.928;2023-04-25T03:07:04;4.75;;;3.45;;
19623;SDS011;9959;49.798;9.928;2023-04-25T03:09:31;4.30;;;3.25;;
19623;SDS011;9959;49.798;9.928;2023-04-25T03:11:58;4.25;;;2.97;;
19623;SDS011;9959;49.798;9.928;2023-04-25T03:14:24;4.63;;;3.10;;
19623;SDS011;9959;49.798;9.928;2023-04-25T03:16:51;4.03;;;3.20;;
19623;SDS011;9959;49.798;9.928;2023-04-25T03:19:18;4.35;;;3.50;;
19623;SDS011;9959;49.798;9.928;2023-04-25T03:21:46;4.93;;;3.22;;
19623;SDS011;9959;49.798;9.928;2023-04-25T03:24:14;5.75;;;3.67;;
19623;SDS011;9959;49.798;9.928;2023-04-25T03:26:40;4.43;;;3.40;;
19623;SDS011;9959;49.798;9.928;2023-04-25T03:29:07;7.05;;;3.70;;
19623;SDS011;9959;49.798;9.928;2023-04-25T03:31:34;5.63;;;4.00;;
19623;SDS011;9959;49.798;9.928;2023-04-25T03:34:01;8.25;;;4.38;;
19623;SDS011;9959;49.798;9.928;2023-04-25T03:36:28;7.07;;;4.20;;
19623;SDS011;9959;49.798;9.928;2023-04-25T03:38:55;6.82;;;4.63;;
19623;SDS011;9959;49.798;9.928;2023-04-25T03:41:21;8.10;;;4.80;;
19623;SDS011;9959;49.798;9.928;2023-04-25T03:43:48;6.68;;;4.68;;
19623;SDS011;9959;49.798;9.928;2023-04-25T03:46:15;10.07;;;5.45;;
19623;SDS011;9959;49.798;9.928;2023-04-25T03:48:42;8.75;;;5.20;;
19623;SDS011;9959;49.798;9.928;2023-04-25T03:51:09;10.95;;;5.93;;
19623;SDS011;9959;49.798;9.928;2023-04-25T03:53:37;9.55;;;6.05;;
19623;SDS011;9959;49.798;9.928;2023-04-25T03:56:04;8.80;;;6.28;;
19623;SDS011;9959;49.798;9.928;2023-04-25T03:58:31;11.25;;;6.13;;
19623;SDS011;9959;49.798;9.928;2023-04-25T04:00:57;9.48;;;6.10;;
19623;SDS011;9959;49.798;9.928;2023-04-25T04:03:25;9.50;;;5.90;;
19623;SDS011;9959;49.798;9.928;2023-04-25T04:05:52;9.88;;;6.95;;
19623;SDS011;9959;49.798;9.928;2023-04-25T04:08:19;11.80;;;6.47;;
19623;SDS011;9959;49.798;9.928;2023-04-25T04:10:46;11.32;;;6.85;;
19623;SDS011;9959;49.798;9.928;2023-04-25T04:13:13;11.40;;;7.00;;
19623;SDS011;9959;49.798;9.928;2023-04-25T04:15:39;12.95;;;7.18;;
19623;SDS011;9959;49.798;9.928;2023-04-25T04:18:06;12.20;;;7.45;;
19623;SDS011;9959;49.798;9.928;2023-04-25T04:20:33;15.63;;;7.78;;
19623;SDS011;9959;49.798;9.928;2023-04-25T04:23:00;13.40;;;6.90;;
19623;SDS011;9959;49.798;9.928;2023-04-25T04:25:28;12.70;;;7.10;;
19623;SDS011;9959;49.798;9.928;2023-04-25T04:27:54;13.77;;;7.53;;
19623;SDS011;9959;49.798;9.928;2023-04-25T04:30:22;13.15;;;7.53;;
19623;SDS011;9959;49.798;9.928;2023-04-25T04:32:51;17.10;;;7.72;;
19623;SDS011;9959;49.798;9.928;2023-04-25T04:35:18;14.10;;;8.50;;
19623;SDS011;9959;49.798;9.928;2023-04-25T04:37:45;14.43;;;8.52;;
19623;SDS011;9959;49.798;9.928;2023-04-25T04:40:12;13.50;;;7.93;;
19623;SDS011;9959;49.798;9.928;2023-04-25T04:42:42;14.20;;;8.13;;
19623;SDS011;9959;49.798;9.928;2023-04-25T04:45:09;12.15;;;8.30;;
19623;SDS011;9959;49.798;9.928;2023-04-25T04:47:37;14.63;;;8.55;;
19623;SDS011;9959;49.798;9.928;2023-04-25T04:50:06;12.90;;;8.82;;
19623;SDS011;9959;49.798;9.928;2023-04-25T04:52:36;15.48;;;8.75;;
19623;SDS011;9959;49.798;9.928;2023-04-25T04:55:03;18.02;;;9.38;;
19623;SDS011;9959;49.798;9.928;2023-04-25T04:57:31;12.93;;;8.40;;
19623;SDS011;9959;49.798;9.928;2023-04-25T04:59:59;16.38;;;9.35;;
19623;SDS011;9959;49.798;9.928;2023-04-25T05:02:26;16.83;;;8.25;;
19623;SDS011;9959;49.798;9.928;2023-04-25T05:04:53;15.73;;;8.80;;
19623;SDS011;9959;49.798;9.928;2023-04-25T05:07:20;14.30;;;8.95;;
19623;SDS011;9959;49.798;9.928;2023-04-25T05:09:47;14.73;;;8.18;;
19623;SDS011;9959;49.798;9.928;2023-04-25T05:12:14;14.68;;;8.60;;
19623;SDS011;9959;49.798;9.928;2023-04-25T05:14:41;15.98;;;9.00;;
19623;SDS011;9959;49.798;9.928;2023-04-25T05:17:08;18.83;;;10.05;;
19623;SDS011;9959;49.798;9.928;2023-04-25T05:19:34;14.63;;;9.02;;
19623;SDS011;9959;49.798;9.928;2023-04-25T05:22:02;14.13;;;9.25;;
19623;SDS011;9959;49.798;9.928;2023-04-25T05:24:29;17.17;;;9.60;;
19623;SDS011;9959;49.798;9.928;2023-04-25T05:26:57;16.77;;;8.65;;
19623;SDS011;9959;49.798;9.928;2023-04-25T05:29:24;15.57;;;9.05;;
19623;SDS011;9959;49.798;9.928;2023-04-25T05:31:55;12.85;;;8.73;;
19623;SDS011;9959;49.798;9.928;2023-04-25T05:34:22;22.02;;;9.75;;
19623;SDS011;9959;49.798;9.928;2023-04-25T05:36:49;17.27;;;9.70;;
19623;SDS011;9959;49.798;9.928;2023-04-25T05:39:16;16.70;;;9.27;;
19623;SDS011;9959;49.798;9.928;2023-04-25T05:41:46;15.73;;;9.63;;
19623;SDS011;9959;49.798;9.928;2023-04-25T05:44:14;15.23;;;9.38;;
19623;SDS011;9959;49.798;9.928;2023-04-25T05:46:42;17.45;;;9.10;;
19623;SDS011;9959;49.798;9.928;2023-04-25T05:49:10;15.25;;;8.98;;
19623;SDS011;9959;49.798;9.928;2023-04-25T05:51:37;15.63;;;9.18;;
19623;SDS011;9959;49.798;9.928;2023-04-25T05:54:04;15.07;;;9.38;;
19623;SDS011;9959;49.798;9.928;2023-04-25T05:56:31;15.20;;;8.35;;
19623;SDS011;9959;49.798;9.928;2023-04-25T05:58:58;13.75;;;9.38;;
19623;SDS011;9959;49.798;9.928;2023-04-25T06:01:25;17.17;;;9.80;;
19623;SDS011;9959;49.798;9.928;2023-04-25T06:03:52;15.25;;;8.75;;
19623;SDS011;9959;49.798;9.928;2023-04-25T06:06:20;15.52;;;8.27;;
19623;SDS011;9959;49.798;9.928;2023-04-25T06:08:47;14.77;;;9.00;;
19623;SDS011;9959;49.798;9.928;2023-04-25T06:11:14;16.08;;;9.25;;
19623;SDS011;9959;49.798;9.928;2023-04-25T06:13:50;16.77;;;9.52;;
19623;SDS011;9959;49.798;9.928;2023-04-25T06:16:20;16.58;;;8.35;;
19623;SDS011;9959;49.798;9.928;2023-04-25T06:18:47;15.77;;;8.50;;
19623;SDS011;9959;49.798;9.928;2023-04-25T06:21:14;19.33;;;9.35;;
19623;SDS011;9959;49.798;9.928;2023-04-25T06:23:43;14.73;;;8.27;;
19623;SDS011;9959;49.798;9.928;2023-04-25T06:26:10;17.40;;;9.38;;
19623;SDS011;9959;49.798;9.928;2023-04-25T06:28:37;15.73;;;8.35;;
19623;SDS011;9959;49.798;9.928;2023-04-25T06:31:04;17.02;;;9.30;;
19623;SDS011;9959;49.798;9.928;2023-04-25T06:33:31;18.17;;;8.57;;
19623;SDS011;9959;49.798;9.928;2023-04-25T06:35:58;17.95;;;9.52;;
19623;SDS011;9959;49.798;9.928;2023-04-25T06:38:25;17.55;;;9.57;;
19623;SDS011;9959;49.798;9.928;2023-04-25T06:40:52;20.27;;;10.70;;
19623;SDS011;9959;49.798;9.928;2023-04-25T06:43:19;15.85;;;8.38;;
19623;SDS011;9959;49.798;9.928;2023-04-25T06:45:46;16.40;;;8.07;;
19623;SDS011;9959;49.798;9.928;2023-04-25T06:48:13;20.23;;;9.10;;
19623;SDS011;9959;49.798;9.928;2023-04-25T06:50:40;11.90;;;8.15;;
19623;SDS011;9959;49.798;9.928;2023-04-25T06:53:07;14.80;;;8.10;;
19623;SDS011;9959;49.798;9.928;2023-04-25T06:55:35;14.65;;;7.38;;
19623;SDS011;9959;49.798;9.928;2023-04-25T06:58:02;11.70;;;7.05;;
19623;SDS011;9959;49.798;9.928;2023-04-25T07:00:29;14.43;;;7.43;;
19623;SDS011;9959;49.798;9.928;2023-04-25T07:02:57;15.70;;;7.60;;
19623;SDS011;9959;49.798;9.928;2023-04-25T07:05:24;13.57;;;7.35;;
19623;SDS011;9959;49.798;9.928;2023-04-25T07:07:51;15.15;;;7.25;;
19623;SDS011;9959;49.798;9.928;2023-04-25T07:10:18;16.30;;;7.45;;
19623;SDS011;9959;49.798;9.928;2023-04-25T07:12:45;16.55;;;8.10;;
19623;SDS011;9959;49.798;9.928;2023-04-25T07:15:12;14.85;;;7.40;;
19623;SDS011;9959;49.798;9.928;2023-04-25T07:17:39;13.65;;;8.18;;
19623;SDS011;9959;49.798;9.928;2023-04-25T07:20:05;12.55;;;7.00;;
19623;SDS011;9959;49.798;9.928;2023-04-25T07:22:35;15.82;;;7.57;;
19623;SDS011;9959;49.798;9.928;2023-04-25T07:25:02;14.00;;;7.55;;
19623;SDS011;9959;49.798;9.928;2023-04-25T07:27:31;13.43;;;6.95;;
19623;SDS011;9959;49.798;9.928;2023-04-25T07:29:58;17.83;;;7.45;;
19623;SDS011;9959;49.798;9.928;2023-04-25T07:32:25;13.50;;;7.93;;
19623;SDS011;9959;49.798;9.928;2023-04-25T07:34:52;17.30;;;7.55;;
19623;SDS011;9959;49.798;9.928;2023-04-25T07:37:19;14.38;;;6.82;;
19623;SDS011;9959;49.798;9.928;2023-04-25T07:39:46;13.23;;;6.70;;
19623;SDS011;9959;49.798;9.928;2023-04-25T07:42:13;16.40;;;7.03;;
19623;SDS011;9959;49.798;9.928;2023-04-25T07:44:40;9.85;;;5.90;;
19623;SDS011;9959;49.798;9.928;2023-04-25T07:47:07;13.45;;;6.35;;
19623;SDS011;9959;49.798;9.928;2023-04-25T07:49:35;9.98;;;6.00;;
19623;SDS011;9959;49.798;9.928;2023-04-25T07:52:03;10.50;;;5.78;;
19623;SDS011;9959;49.798;9.928;2023-04-25T07:54:32;11.65;;;6.07;;
19623;SDS011;9959;49.798;9.928;2023-04-25T07:56:59;10.45;;;5.78;;
19623;SDS011;9959;49.798;9.928;2023-04-25T07:59:26;10.25;;;4.97;;
19623;SDS011;9959;49.798;9.928;2023-04-25T08:01:55;9.65;;;5.25;;
19623;SDS011;9959;49.798;9.928;2023-04-25T08:04:24;9.30;;;5.30;;
19623;SDS011;9959;49.798;9.928;2023-04-25T08:06:52;9.40;;;4.35;;
19623;SDS011;9959;49.798;9.928;2023-04-25T08:09:20;8.50;;;2.95;;
19623;SDS011;9959;49.798;9.928;2023-04-25T08:11:47;8.55;;;3.03;;
19623;SDS011;9959;49.798;9.928;2023-04-25T08:14:15;6.18;;;2.80;;
19623;SDS011;9959;49.798;9.928;2023-04-25T08:16:42;6.93;;;3.22;;
19623;SDS011;9959;49.798;9.928;2023-04-25T08:19:09;7.13;;;3.10;;
19623;SDS011;9959;49.798;9.928;2023-04-25T08:21:37;7.30;;;2.70;;
19623;SDS011;9959;49.798;9.928;2023-04-25T08:24:04;4.13;;;2.60;;
19623;SDS011;9959;49.798;9.928;2023-04-25T08:26:31;7.00;;;2.78;;
19623;SDS011;9959;49.798;9.928;2023-04-25T08:28:58;4.03;;;2.00;;
19623;SDS011;9959;49.798;9.928;2023-04-25T08:31:25;4.32;;;2.55;;
19623;SDS011;9959;49.798;9.928;2023-04-25T08:33:52;5.50;;;2.50;;
19623;SDS011;9959;49.798;9.928;2023-04-25T08:36:19;5.15;;;2.40;;
19623;SDS011;9959;49.798;9.928;2023-04-25T08:39:03;4.88;;;2.55;;
19623;SDS011;9959;49.798;9.928;2023-04-25T08:41:30;4.75;;;2.72;;
19623;SDS011;9959;49.798;9.928;2023-04-25T08:43:57;4.15;;;2.67;;
19623;SDS011;9959;49.798;9.928;2023-04-25T08:46:26;6.60;;;2.35;;
19623;SDS011;9959;49.798;9.928;2023-04-25T08:48:54;3.22;;;2.25;;
19623;SDS011;9959;49.798;9.928;2023-04-25T08:51:26;5.80;;;2.67;;
19623;SDS011;9959;49.798;9.928;2023-04-25T08:53:57;4.05;;;2.25;;
19623;SDS011;9959;49.798;9.928;2023-04-25T08:56:57;7.53;;;2.70;;
19623;SDS011;9959;49.798;9.928;2023-04-25T08:59:28;8.07;;;2.85;;
19623;SDS011;9959;49.798;9.928;2023-04-25T09:01:56;5.60;;;2.78;;
19623;SDS011;9959;49.798;9.928;2023-04-25T09:04:23;8.85;;;2.50;;
19623;SDS011;9959;49.798;9.928;2023-04-25T09:06:50;6.22;;;2.80;;
19623;SDS011;9959;49.798;9.928;2023-04-25T09:09:17;4.30;;;2.70;;
19623;SDS011;9959;49.798;9.928;2023-04-25T09:11:44;5.03;;;2.40;;
19623;SDS011;9959;49.798;9.928;2023-04-25T09:14:15;6.47;;;3.00;;
19623;SDS011;9959;49.798;9.928;2023-04-25T09:16:58;5.55;;;2.55;;
19623;SDS011;9959;49.798;9.928;2023-04-25T09:19:34;7.03;;;2.60;;
19623;SDS011;9959;49.798;9.928;2023-04-25T09:22:07;3.28;;;2.50;;
19623;SDS011;9959;49.798;9.928;2023-04-25T09:24:41;4.03;;;2.20;;
19623;SDS011;9959;49.798;9.928;2023-04-25T09:27:11;5.45;;;2.63;;
19623;SDS011;9959;49.798;9.928;2023-04-25T09:29:39;4.72;;;2.58;;
19623;SDS011;9959;49.798;9.928;2023-04-25T09:32:15;3.00;;;2.50;;
19623;SDS011;9959;49.798;9.928;2023-04-25T09:34:44;5.18;;;2.40;;
19623;SDS011;9959;49.798;9.928;2023-04-25T09:37:22;4.40;;;2.65;;
19623;SDS011;9959;49.798;9.928;2023-04-25T09:39:58;3.80;;;2.30;;
19623;SDS011;9959;49.798;9.928;2023-04-25T09:42:27;5.93;;;2.50;;
19623;SDS011;9959;49.798;9.928;2023-04-25T09:44:57;3.30;;;2.10;;
19623;SDS011;9959;49.798;9.928;2023-04-25T09:47:25;3.30;;;2.72;;
19623;SDS011;9959;49.798;9.928;2023-04-25T09:49:53;4.28;;;2.25;;
19623;SDS011;9959;49.798;9.928;2023-04-25T09:52:22;4.97;;;2.55;;
19623;SDS011;9959;49.798;9.928;2023-04-25T09:54:51;4.22;;;2.55;;
19623;SDS011;9959;49.798;9.928;2023-04-25T09:57:19;6.68;;;2.75;;
19623;SDS011;9959;49.798;9.928;2023-04-25T09:59:48;6.18;;;2.95;;
19623;SDS011;9959;49.798;9.928;2023-04-25T10:02:17;5.05;;;3.38;;
19623;SDS011;9959;49.798;9.928;2023-04-25T10:04:50;6.32;;;2.90;;
19623;SDS011;9959;49.798;9.928;2023-04-25T10:07:22;3.88;;;2.70;;
19623;SDS011;9959;49.798;9.928;2023-04-25T10:09:59;3.50;;;2.60;;
19623;SDS011;9959;49.798;9.928;2023-04-25T10:12:29;5.13;;;2.58;;
19623;SDS011;9959;49.798;9.928;2023-04-25T10:15:00;5.07;;;2.65;;
19623;SDS011;9959;49.798;9.928;2023-04-25T10:17:29;5.95;;;2.90;;
19623;SDS011;9959;49.798;9.928;2023-04-25T10:19:58;2.88;;;2.40;;
19623;SDS011;9959;49.798;9.928;2023-04-25T10:24:59;5.93;;;2.70;;
19623;SDS011;9959;49.798;9.928;2023-04-25T10:27:27;5.65;;;2.70;;
19623;SDS011;9959;49.798;9.928;2023-04-25T10:30:01;6.88;;;2.90;;
19623;SDS011;9959;49.798;9.928;2023-04-25T10:32:32;5.53;;;3.15;;
19623;SDS011;9959;49.798;9.928;2023-04-25T10:35:13;3.90;;;2.60;;
19623;SDS011;9959;49.798;9.928;2023-04-25T10:40:34;6.43;;;2.80;;
19623;SDS011;9959;49.798;9.928;2023-04-25T10:48:56;5.07;;;2.83;;
19623;SDS011;9959;49.798;9.928;2023-04-25T10:51:33;5.35;;;2.88;;
19623;SDS011;9959;49.798;9.928;2023-04-25T10:54:19;2.50;;;2.15;;
19623;SDS011;9959;49.798;9.928;2023-04-25T10:56:49;2.72;;;2.05;;
19623;SDS011;9959;49.798;9.928;2023-04-25T10:59:17;4.15;;;2.83;;
19623;SDS011;9959;49.798;9.928;2023-04-25T11:01:46;8.18;;;2.80;;
19623;SDS011;9959;49.798;9.928;2023-04-25T11:07:28;6.82;;;2.90;;
19623;SDS011;9959;49.798;9.928;2023-04-25T11:10:02;4.35;;;2.72;;
19623;SDS011;9959;49.798;9.928;2023-04-25T11:12:30;5.85;;;2.67;;
19623;SDS011;9959;49.798;9.928;2023-04-25T11:15:02;7.00;;;2.75;;
19623;SDS011;9959;49.798;9.928;2023-04-25T11:17:30;4.65;;;2.90;;
19623;SDS011;9959;49.798;9.928;2023-04-25T11:19:57;7.63;;;2.45;;
19623;SDS011;9959;49.798;9.928;2023-04-25T11:22:24;5.32;;;2.50;;
19623;SDS011;9959;49.798;9.928;2023-04-25T11:24:52;5.82;;;2.95;;
19623;SDS011;9959;49.798;9.928;2023-04-25T11:27:19;4.95;;;2.90;;
19623;SDS011;9959;49.798;9.928;2023-04-25T11:29:47;3.85;;;2.70;;
19623;SDS011;9959;49.798;9.928;2023-04-25T11:32:17;4.20;;;3.08;;
19623;SDS011;9959;49.798;9.928;2023-04-25T11:34:46;4.97;;;2.63;;
19623;SDS011;9959;49.798;9.928;2023-04-25T11:37:13;8.65;;;3.53;;
19623;SDS011;9959;49.798;9.928;2023-04-25T11:39:43;7.70;;;3.22;;
19623;SDS011;9959;49.798;9.928;2023-04-25T11:42:12;4.25;;;2.80;;
19623;SDS011;9959;49.798;9.928;2023-04-25T11:44:39;6.93;;;3.00;;
19623;SDS011;9959;49.798;9.928;2023-04-25T11:47:07;7.40;;;3.35;;
19623;SDS011;9959;49.798;9.928;2023-04-25T11:49:33;3.80;;;2.70;;
19623;SDS011;9959;49.798;9.928;2023-04-25T11:52:02;5.07;;;2.75;;
19623;SDS011;9959;49.798;9.928;2023-04-25T11:54:29;5.85;;;2.60;;
19623;SDS011;9959;49.798;9.928;2023-04-25T11:56:56;7.18;;;3.13;;
19623;SDS011;9959;49.798;9.928;2023-04-25T11:59:23;5.22;;;2.70;;
19623;SDS011;9959;49.798;9.928;2023-04-25T12:01:51;4.28;;;2.60;;
19623;SDS011;9959;49.798;9.928;2023-04-25T12:04:22;4.70;;;2.80;;
19623;SDS011;9959;49.798;9.928;2023-04-25T12:06:52;10.85;;;2.65;;
19623;SDS011;9959;49.798;9.928;2023-04-25T12:09:21;6.65;;;2.72;;
19623;SDS011;9959;49.798;9.928;2023-04-25T12:11:56;4.50;;;2.60;;
19623;SDS011;9959;49.798;9.928;2023-04-25T12:14:31;5.07;;;2.63;;
19623;SDS011;9959;49.798;9.928;2023-04-25T12:17:00;3.38;;;2.42;;
19623;SDS011;9959;49.798;9.928;2023-04-25T12:19:35;5.28;;;2.70;;
19623;SDS011;9959;49.798;9.928;2023-04-25T12:22:08;4.13;;;2.80;;
19623;SDS011;9959;49.798;9.928;2023-04-25T12:24:46;6.00;;;3.00;;
19623;SDS011;9959;49.798;9.928;2023-04-25T12:27:14;5.30;;;3.40;;
19623;SDS011;9959;49.798;9.928;2023-04-25T12:29:55;4.60;;;2.92;;
19623;SDS011;9959;49.798;9.928;2023-04-25T12:32:27;6.20;;;3.38;;
19623;SDS011;9959;49.798;9.928;2023-04-25T12:34:54;7.47;;;3.60;;
19623;SDS011;9959;49.798;9.928;2023-04-25T12:37:24;7.68;;;4.57;;
19623;SDS011;9959;49.798;9.928;2023-04-25T12:39:51;7.72;;;4.78;;
19623;SDS011;9959;49.798;9.928;2023-04-25T12:42:18;6.00;;;3.85;;
19623;SDS011;9959;49.798;9.928;2023-04-25T12:44:44;6.75;;;3.75;;
19623;SDS011;9959;49.798;9.928;2023-04-25T12:47:12;4.93;;;3.10;;
19623;SDS011;9959;49.798;9.928;2023-04-25T12:49:40;4.60;;;3.30;;
19623;SDS011;9959;49.798;9.928;2023-04-25T12:52:07;5.38;;;3.58;;
19623;SDS011;9959;49.798;9.928;2023-04-25T12:54:34;5.57;;;3.55;;
19623;SDS011;9959;49.798;9.928;2023-04-25T12:57:01;8.93;;;4.35;;
19623;SDS011;9959;49.798;9.928;2023-04-25T12:59:29;5.68;;;3.78;;
19623;SDS011;9959;49.798;9.928;2023-04-25T13:01:56;5.57;;;3.75;;
19623;SDS011;9959;49.798;9.928;2023-04-25T13:04:23;6.53;;;3.80;;
19623;SDS011;9959;49.798;9.928;2023-04-25T13:06:50;5.63;;;3.90;;
19623;SDS011;9959;49.798;9.928;2023-04-25T13:09:17;10.85;;;4.07;;
19623;SDS011;9959;49.798;9.928;2023-04-25T13:11:44;6.60;;;4.10;;
19623;SDS011;9959;49.798;9.928;2023-04-25T13:14:12;8.02;;;3.85;;
19623;SDS011;9959;49.798;9.928;2023-04-25T13:16:39;8.35;;;3.88;;
19623;SDS011;9959;49.798;9.928;2023-04-25T13:19:06;8.90;;;4.50;;
19623;SDS011;9959;49.798;9.928;2023-04-25T13:21:37;9.80;;;3.95;;
19623;SDS011;9959;49.798;9.928;2023-04-25T13:24:04;8.93;;;4.50;;
19623;SDS011;9959;49.798;9.928;2023-04-25T13:26:31;11.07;;;4.57;;
19623;SDS011;9959;49.798;9.928;2023-04-25T13:28:58;8.68;;;4.47;;
19623;SDS011;9959;49.798;9.928;2023-04-25T13:31:26;6.50;;;4.25;;
19623;SDS011;9959;49.798;9.928;2023-04-25T13:33:53;11.38;;;4.57;;
19623;SDS011;9959;49.798;9.928;2023-04-25T13:36:20;11.18;;;4.78;;
19623;SDS011;9959;49.798;9.928;2023-04-25T13:38:47;8.93;;;4.43;;
19623;SDS011;9959;49.798;9.928;2023-04-25T13:41:17;7.13;;;4.60;;
19623;SDS011;9959;49.798;9.928;2023-04-25T13:43:46;6.15;;;4.35;;
19623;SDS011;9959;49.798;9.928;2023-04-25T13:46:15;7.10;;;4.28;;
19623;SDS011;9959;49.798;9.928;2023-04-25T13:49:02;8.57;;;4.18;;
19623;SDS011;9959;49.798;9.928;2023-04-25T13:51:38;11.23;;;4.18;;
19623;SDS011;9959;49.798;9.928;2023-04-25T13:54:05;12.15;;;4.13;;
19623;SDS011;9959;49.798;9.928;2023-04-25T13:56:32;8.73;;;3.80;;
19623;SDS011;9959;49.798;9.928;2023-04-25T13:58:59;9.25;;;3.80;;
19623;SDS011;9959;49.798;9.928;2023-04-25T14:01:25;8.30;;;3.85;;
19623;SDS011;9959;49.798;9.928;2023-04-25T14:03:54;5.47;;;3.80;;
19623;SDS011;9959;49.798;9.928;2023-04-25T14:06:21;5.22;;;3.38;;
19623;SDS011;9959;49.798;9.928;2023-04-25T14:08:50;4.30;;;2.70;;
19623;SDS011;9959;49.798;9.928;2023-04-25T14:11:17;5.85;;;3.05;;
19623;SDS011;9959;49.798;9.928;2023-04-25T14:13:47;6.45;;;3.30;;
19623;SDS011;9959;49.798;9.928;2023-04-25T14:16:16;8.13;;;3.03;;
19623;SDS011;9959;49.798;9.928;2023-04-25T14:18:43;7.35;;;3.13;;
19623;SDS011;9959;49.798;9.928;2023-04-25T14:21:10;3.42;;;2.67;;
19623;SDS011;9959;49.798;9.928;2023-04-25T14:23:37;3.35;;;2.58;;
19623;SDS011;9959;49.798;9.928;2023-04-25T14:26:03;4.68;;;2.80;;
19623;SDS011;9959;49.798;9.928;2023-04-25T14:28:31;3.80;;;2.78;;
19623;SDS011;9959;49.798;9.928;2023-04-25T14:30:58;6.28;;;3.00;;
19623;SDS011;9959;49.798;9.928;2023-04-25T14:33:25;10.13;;;4.30;;
19623;SDS011;9959;49.798;9.928;2023-04-25T14:35:52;6.65;;;2.88;;
19623;SDS011;9959;49.798;9.928;2023-04-25T14:38:19;5.47;;;3.08;;
19623;SDS011;9959;49.798;9.928;2023-04-25T14:40:49;4.78;;;3.00;;
19623;SDS011;9959;49.798;9.928;2023-04-25T14:43:16;8.23;;;2.95;;
19623;SDS011;9959;49.798;9.928;2023-04-25T14:45:43;4.35;;;3.05;;
19623;SDS011;9959;49.798;9.928;2023-04-25T14:48:10;5.40;;;2.67;;
19623;SDS011;9959;49.798;9.928;2023-04-25T14:50:37;3.92;;;2.70;;
19623;SDS011;9959;49.798;9.928;2023-04-25T14:53:04;8.27;;;3.13;;
19623;SDS011;9959;49.798;9.928;2023-04-25T14:55:31;9.18;;;3.60;;
19623;SDS011;9959;49.798;9.928;2023-04-25T14:57:58;7.28;;;2.90;;
19623;SDS011;9959;49.798;9.928;2023-04-25T15:00:25;6.03;;;2.95;;
19623;SDS011;9959;49.798;9.928;2023-04-25T15:02:53;7.47;;;3.05;;
19623;SDS011;9959;49.798;9.928;2023-04-25T15:05:20;5.43;;;2.85;;
19623;SDS011;9959;49.798;9.928;2023-04-25T15:07:46;9.05;;;3.03;;
19623;SDS011;9959;49.798;9.928;2023-04-25T15:10:14;8.10;;;3.10;;
19623;SDS011;9959;49.798;9.928;2023-04-25T15:12:42;7.00;;;3.42;;
19623;SDS011;9959;49.798;9.928;2023-04-25T15:15:12;5.97;;;3.15;;
19623;SDS011;9959;49.798;9.928;2023-04-25T15:17:51;6.47;;;3.08;;